createdAt,value
2022-11-05T00:02:30.060Z,100243.97
2022-11-05T00:05:14.913Z,100245.59
2022-11-05T00:08:09.360Z,100254.31
2022-11-05T00:10:38.483Z,100257.75
2022-11-05T00:13:25.684Z,100269.97
2022-11-05T00:16:10.914Z,100266.38
2022-11-05T00:18:37.522Z,100266.28
2022-11-05T00:21:04.742Z,100265.31
2022-11-05T00:23:49.770Z,100281.03
2022-11-05T00:26:16.434Z,100269.53
2022-11-05T00:28:43.948Z,100280.84
2022-11-05T00:31:14.239Z,100285.19
2022-11-05T00:33:42.833Z,100289.47
2022-11-05T00:36:10.729Z,100275.31
2022-11-05T00:38:37.586Z,100284.03
2022-11-05T00:41:04.225Z,100283.97
2022-11-05T00:43:53.994Z,100289.13
2022-11-05T00:46:20.498Z,100288.16
2022-11-05T00:49:05.376Z,100294.25
2022-11-05T00:51:31.988Z,100296.78
2022-11-05T00:53:58.498Z,100297.56
2022-11-05T00:56:25.165Z,100302.78
2022-11-05T00:58:51.825Z,100309.72
2022-11-05T01:01:18.518Z,100305.22
2022-11-05T01:03:50.426Z,100306.03
2022-11-05T01:06:18.170Z,100308.56
2022-11-05T01:08:46.262Z,100319.06
2022-11-05T01:11:34.173Z,100318.09
2022-11-05T01:14:12.356Z,100324.16
2022-11-05T01:16:40.285Z,100325.03
2022-11-05T01:19:08.975Z,100328.47
2022-11-05T01:21:35.770Z,100338.03
2022-11-05T01:24:05.696Z,100333.56
2022-11-05T01:26:32.538Z,100323.91
2022-11-05T01:29:02.403Z,100330.00
2022-11-05T01:31:31.724Z,100327.31
2022-11-05T01:34:03.688Z,100332.56
2022-11-05T01:36:32.490Z,100327.25
2022-11-05T01:38:59.097Z,100335.94
2022-11-05T01:41:25.762Z,100333.28
2022-11-05T01:43:59.286Z,100326.22
2022-11-05T01:46:52.343Z,100336.69
2022-11-05T01:49:29.733Z,100327.84
2022-11-05T01:51:58.178Z,100339.16
2022-11-05T01:54:28.746Z,100341.81
2022-11-05T01:57:03.752Z,100337.41
2022-11-05T01:59:45.975Z,100339.13
2022-11-05T02:02:12.830Z,100347.81
2022-11-05T02:04:54.750Z,100344.28
2022-11-05T02:07:25.631Z,100347.72
2022-11-05T02:10:02.342Z,100353.81
2022-11-05T02:12:33.303Z,100347.66
2022-11-05T02:15:00.287Z,100353.78
2022-11-05T02:17:33.433Z,100349.34
2022-11-05T02:20:18.383Z,100355.41
2022-11-05T02:22:56.764Z,100356.22
2022-11-05T02:25:35.429Z,100357.06
2022-11-05T02:28:43.130Z,100362.28
2022-11-05T02:31:22.975Z,100363.13
2022-11-05T02:34:18.900Z,100369.22
2022-11-05T02:36:49.666Z,100365.66
2022-11-05T02:39:30.150Z,100361.25
2022-11-05T02:42:05.830Z,100363.81
2022-11-05T02:45:05.875Z,100370.78
2022-11-05T02:47:38.368Z,100365.38
2022-11-05T02:50:33.624Z,100363.59
2022-11-05T02:53:06.078Z,100359.16
2022-11-05T02:55:54.696Z,100355.56
2022-11-05T02:58:21.555Z,100359.88
2022-11-05T03:00:56.002Z,100365.97
2022-11-05T03:03:39.047Z,100363.25
2022-11-05T03:06:22.914Z,100376.34
2022-11-05T03:09:08.472Z,100384.19
2022-11-05T03:11:49.742Z,100375.41
2022-11-05T03:14:22.395Z,100368.34
2022-11-05T03:17:24.413Z,100367.34
2022-11-05T03:20:08.654Z,100368.19
2022-11-05T03:22:41.485Z,100369.88
2022-11-05T03:25:15.790Z,100375.06
2022-11-05T03:27:47.758Z,100386.41
2022-11-05T03:30:16.308Z,100387.25
2022-11-05T03:32:48.933Z,100391.56
2022-11-05T03:35:22.766Z,100394.16
2022-11-05T03:37:53.308Z,100394.06
2022-11-05T03:40:23.826Z,100399.25
2022-11-05T03:42:54.307Z,100398.31
2022-11-05T03:45:28.032Z,100394.75
2022-11-05T03:47:59.038Z,100393.81
2022-11-05T03:51:04.474Z,100393.75
2022-11-05T03:53:35.081Z,100412.09
2022-11-05T03:56:11.740Z,100414.75
2022-11-05T03:58:42.950Z,100422.59
2022-11-05T04:01:09.733Z,100425.19
2022-11-05T04:03:36.741Z,100424.22
2022-11-05T04:06:23.976Z,100424.16
2022-11-05T04:09:09.553Z,100425.84
2022-11-05T04:11:54.977Z,100428.41
2022-11-05T04:14:21.811Z,100431.00
2022-11-05T04:17:06.287Z,100428.31
2022-11-05T04:19:53.250Z,100428.22
2022-11-05T04:22:38.672Z,100439.56
2022-11-05T04:25:05.463Z,100447.38
2022-11-05T04:27:32.498Z,100443.00
2022-11-05T04:30:17.682Z,100439.47
2022-11-05T04:33:08.537Z,100451.66
2022-11-05T04:35:40.678Z,100451.56
2022-11-05T04:38:16.277Z,100445.44
2022-11-05T04:40:44.472Z,100445.38
2022-11-05T04:43:15.964Z,100456.72
2022-11-05T04:45:43.017Z,100461.09
2022-11-05T04:48:09.866Z,100456.66
2022-11-05T04:50:36.784Z,100456.63
2022-11-05T04:53:03.768Z,100455.69
2022-11-05T04:55:30.443Z,100465.25
2022-11-05T04:57:57.311Z,100466.06
2022-11-05T05:00:24.353Z,100480.09
2022-11-05T05:02:51.061Z,100476.53
2022-11-05T05:05:17.732Z,100480.88
2022-11-05T05:07:44.271Z,100481.75
2022-11-05T05:10:11.810Z,100479.06
2022-11-05T05:12:38.435Z,100480.75
2022-11-05T05:15:05.471Z,100483.34
2022-11-05T05:17:32.128Z,100476.28
2022-11-05T05:20:17.490Z,100480.59
2022-11-05T05:22:44.004Z,100482.31
2022-11-05T05:25:10.615Z,100486.63
2022-11-05T05:27:37.569Z,100491.78
2022-11-05T05:30:04.980Z,100495.22
2022-11-05T05:32:31.776Z,100496.03
2022-11-05T05:34:58.446Z,100503.88
2022-11-05T05:37:24.967Z,100504.78
2022-11-05T05:39:53.542Z,100514.41
2022-11-05T05:42:22.883Z,100516.22
2022-11-05T05:44:49.586Z,100511.78
2022-11-05T05:47:16.087Z,100512.66
2022-11-05T05:49:42.666Z,100514.31
2022-11-05T05:52:09.363Z,100509.78
2022-11-05T05:54:41.297Z,100526.41
2022-11-05T05:57:09.234Z,100527.16
2022-11-05T05:59:35.870Z,100522.78
2022-11-05T06:02:02.635Z,100521.78
2022-11-05T06:04:29.249Z,100526.09
2022-11-05T06:06:55.819Z,100525.09
2022-11-05T06:09:22.850Z,100527.59
2022-11-05T06:11:49.468Z,100533.66
2022-11-05T06:14:16.085Z,100538.78
2022-11-05T06:16:42.573Z,100549.25
2022-11-05T06:19:09.107Z,100552.72
2022-11-05T06:21:35.786Z,100549.94
2022-11-05T06:24:02.929Z,100550.78
2022-11-05T06:26:30.306Z,100553.38
2022-11-05T06:28:56.869Z,100558.59
2022-11-05T06:31:23.927Z,100552.41
2022-11-05T06:33:50.765Z,100547.16
2022-11-05T06:36:19.130Z,100551.47
2022-11-05T06:38:45.876Z,100554.09
2022-11-05T06:41:12.534Z,100561.97
2022-11-05T06:43:39.301Z,100567.22
2022-11-05T06:46:06.528Z,100562.78
2022-11-05T06:48:34.405Z,100567.22
2022-11-05T06:51:01.172Z,100568.97
2022-11-05T06:53:28.067Z,100573.28
2022-11-05T06:55:57.427Z,100579.47
2022-11-05T06:58:23.954Z,100576.03
2022-11-05T07:00:50.796Z,100584.88
2022-11-05T07:03:17.346Z,100579.69
2022-11-05T07:05:48.066Z,100575.44
2022-11-05T07:08:15.111Z,100579.00
2022-11-05T07:10:41.765Z,100581.72
2022-11-05T07:13:09.062Z,100581.88
2022-11-05T07:15:36.975Z,100592.47
2022-11-05T07:18:03.981Z,100591.72
2022-11-05T07:20:33.848Z,100590.09
2022-11-05T07:23:07.102Z,100595.47
2022-11-05T07:25:34.520Z,100587.75
2022-11-05T07:28:02.017Z,100600.09
2022-11-05T07:30:29.236Z,100603.75
2022-11-05T07:32:56.009Z,100605.72
2022-11-05T07:35:22.850Z,100612.94
2022-11-05T07:37:51.645Z,100615.66
2022-11-05T07:40:21.530Z,100612.25
2022-11-05T07:42:59.760Z,100625.56
2022-11-05T07:45:29.058Z,100624.94
2022-11-05T07:48:01.278Z,100626.91
2022-11-05T07:50:30.804Z,100628.00
2022-11-05T07:53:12.216Z,100632.56
2022-11-05T07:55:41.304Z,100632.81
2022-11-05T07:58:08.079Z,100636.41
2022-11-05T08:00:34.820Z,100636.59
2022-11-05T08:03:08.760Z,100635.00
2022-11-05T08:05:40.898Z,100642.19
2022-11-05T08:08:09.487Z,100646.75
2022-11-05T08:10:37.613Z,100650.50
2022-11-05T08:13:05.479Z,100652.47
2022-11-05T08:15:32.634Z,100657.84
2022-11-05T08:18:00.717Z,100652.75
2022-11-05T08:20:30.644Z,100648.53
2022-11-05T08:22:57.613Z,100651.38
2022-11-05T08:25:27.416Z,100647.13
2022-11-05T08:28:11.358Z,100648.16
2022-11-05T08:30:38.465Z,100650.09
2022-11-05T08:33:11.025Z,100653.84
2022-11-05T08:35:39.215Z,100656.56
2022-11-05T08:38:07.776Z,100658.47
2022-11-05T08:40:38.704Z,100657.72
2022-11-05T08:43:07.186Z,100660.50
2022-11-05T08:45:38.522Z,100666.78
2022-11-05T08:48:15.147Z,100667.75
2022-11-05T08:50:42.958Z,100677.59
2022-11-05T08:53:10.751Z,100680.38
2022-11-05T08:55:38.532Z,100683.09
2022-11-05T08:58:10.610Z,100678.88
2022-11-05T09:00:38.753Z,100686.03
2022-11-05T09:03:07.226Z,100680.88
2022-11-05T09:05:39.078Z,100686.25
2022-11-05T09:08:14.522Z,100678.50
2022-11-05T09:10:41.737Z,100684.78
2022-11-05T09:13:17.844Z,100696.41
2022-11-05T09:15:46.150Z,100686.88
2022-11-05T09:18:14.139Z,100693.38
2022-11-05T09:20:41.313Z,100693.72
2022-11-05T09:23:09.802Z,100690.56
2022-11-05T09:25:36.565Z,100702.34
2022-11-05T09:28:16.120Z,100701.84
2022-11-05T09:30:46.304Z,100695.13
2022-11-05T09:33:13.628Z,100696.91
2022-11-05T09:35:41.322Z,100702.94
2022-11-05T09:38:07.983Z,100700.22
2022-11-05T09:40:48.271Z,100702.78
2022-11-05T09:43:31.245Z,100706.31
2022-11-05T09:46:02.195Z,100706.34
2022-11-05T09:48:31.023Z,100713.44
2022-11-05T09:50:58.677Z,100711.75
2022-11-05T09:53:26.139Z,100715.34
2022-11-05T09:55:58.783Z,100720.66
2022-11-05T09:58:50.558Z,100717.22
2022-11-05T10:01:24.188Z,100727.84
2022-11-05T10:03:56.962Z,100734.94
2022-11-05T10:06:26.362Z,100728.81
2022-11-05T10:09:01.528Z,100732.38
2022-11-05T10:11:58.004Z,100729.84
2022-11-05T10:14:30.448Z,100727.28
2022-11-05T10:17:16.426Z,100740.59
2022-11-05T10:19:49.496Z,100732.75
2022-11-05T10:22:18.265Z,100735.47
2022-11-05T10:24:48.219Z,100742.56
2022-11-05T10:27:29.077Z,100745.28
2022-11-05T10:29:56.164Z,100745.50
2022-11-05T10:32:37.303Z,100755.28
2022-11-05T10:35:07.161Z,100755.47
2022-11-05T10:37:39.595Z,100753.06
2022-11-05T10:40:22.261Z,100759.63
2022-11-05T10:43:10.596Z,100759.03
2022-11-05T10:46:19.699Z,100761.59
2022-11-05T10:48:52.907Z,100751.81
2022-11-05T10:51:19.613Z,100757.13
2022-11-05T10:54:02.169Z,100757.25
2022-11-05T10:56:40.391Z,100760.03
2022-11-05T10:59:23.261Z,100756.81
2022-11-05T11:02:01.527Z,100761.31
2022-11-05T11:04:36.526Z,100766.63
2022-11-05T11:07:04.714Z,100765.84
2022-11-05T11:09:35.322Z,100767.66
2022-11-05T11:12:15.759Z,100766.63
2022-11-05T11:14:42.703Z,100770.00
2022-11-05T11:17:26.978Z,100768.06
2022-11-05T11:20:17.346Z,100763.53
2022-11-05T11:22:59.085Z,100767.06
2022-11-05T11:25:30.546Z,100775.06
2022-11-05T11:28:04.226Z,100762.75
2022-11-05T11:30:31.407Z,100770.78
2022-11-05T11:33:09.213Z,100774.63
2022-11-05T11:35:38.279Z,100768.78
2022-11-05T11:38:06.914Z,100764.63
2022-11-05T11:40:37.862Z,100763.06
2022-11-05T11:43:23.862Z,100763.06
2022-11-05T11:45:53.914Z,100755.31
2022-11-05T11:48:28.258Z,100755.44
2022-11-05T11:50:56.052Z,100762.75
2022-11-05T11:53:57.131Z,100760.88
2022-11-05T11:56:23.897Z,100755.31
2022-11-05T11:58:53.076Z,100754.28
2022-11-05T12:01:37.927Z,100756.78
2022-11-05T12:04:19.770Z,100758.56
2022-11-05T12:07:10.390Z,100757.84
2022-11-05T12:09:52.366Z,100754.53
2022-11-05T12:12:30.607Z,100748.56
2022-11-05T12:15:15.244Z,100745.22
2022-11-05T12:17:54.497Z,100737.31
2022-11-05T12:20:48.281Z,100747.78
2022-11-05T12:23:52.552Z,100746.72
2022-11-05T12:26:46.638Z,100734.16
2022-11-05T12:29:46.957Z,100741.06
2022-11-05T12:32:22.917Z,100742.66
2022-11-05T12:35:23.423Z,100746.94
2022-11-05T12:38:12.284Z,100739.78
2022-11-05T12:40:44.546Z,100743.22
2022-11-05T12:43:36.922Z,100744.03
2022-11-05T12:46:37.080Z,100741.44
2022-11-05T12:49:34.522Z,100737.00
2022-11-05T12:52:16.378Z,100737.06
2022-11-05T12:55:01.934Z,100737.22
2022-11-05T12:57:32.209Z,100736.44
2022-11-05T13:00:06.869Z,100740.03
2022-11-05T13:02:40.805Z,100740.03
2022-11-05T13:05:21.172Z,100745.44
2022-11-05T13:08:13.547Z,100741.16
2022-11-05T13:10:45.628Z,100740.38
2022-11-05T13:13:20.955Z,100739.69
2022-11-05T13:16:02.639Z,100731.81
2022-11-05T13:19:03.656Z,100730.88
2022-11-05T13:21:31.253Z,100730.00
2022-11-05T13:24:13.719Z,100731.81
2022-11-05T13:27:24.911Z,100726.44
2022-11-05T13:30:04.990Z,100735.44
2022-11-05T13:32:38.593Z,100725.75
2022-11-05T13:35:14.326Z,100735.50
2022-11-05T13:38:03.353Z,100726.72
2022-11-05T13:41:06.735Z,100736.53
2022-11-05T13:43:52.361Z,100732.13
2022-11-05T13:46:50.131Z,100737.31
2022-11-05T13:49:43.977Z,100724.84
2022-11-05T13:52:38.549Z,100734.47
2022-11-05T13:55:32.995Z,100735.28
2022-11-05T13:58:02.589Z,100728.13
2022-11-05T14:00:34.931Z,100727.13
2022-11-05T14:03:05.376Z,100720.88
2022-11-05T14:05:39.854Z,100730.50
2022-11-05T14:08:28.186Z,100736.59
2022-11-05T14:11:05.297Z,100733.00
2022-11-05T14:13:42.763Z,100737.38
2022-11-05T14:16:22.058Z,100732.03
2022-11-05T14:19:15.661Z,100732.03
2022-11-05T14:21:49.858Z,100745.22
2022-11-05T14:24:27.480Z,100739.00
2022-11-05T14:27:05.963Z,100745.97
2022-11-05T14:29:49.190Z,100742.41
2022-11-05T14:32:24.546Z,100745.88
2022-11-05T14:35:15.898Z,100751.16
2022-11-05T14:38:00.442Z,100746.75
2022-11-05T14:40:32.254Z,100749.38
2022-11-05T14:43:20.572Z,100750.22
2022-11-05T14:46:04.911Z,100748.38
2022-11-05T14:48:37.635Z,100749.25
2022-11-05T14:51:35.314Z,100754.56
2022-11-05T14:54:37.163Z,100757.09
2022-11-05T14:57:04.975Z,100749.94
2022-11-05T14:59:51.754Z,100754.28
2022-11-05T15:02:23.985Z,100747.94
2022-11-05T15:04:53.144Z,100750.56
2022-11-05T15:07:34.460Z,100748.69
2022-11-05T15:10:12.560Z,100753.88
2022-11-05T15:12:47.639Z,100752.91
2022-11-05T15:15:29.886Z,100743.09
2022-11-05T15:18:05.762Z,100748.31
2022-11-05T15:20:41.595Z,100749.97
2022-11-05T15:23:13.537Z,100749.03
2022-11-05T15:26:12.761Z,100748.91
2022-11-05T15:28:46.791Z,100755.00
2022-11-05T15:31:16.363Z,100760.19
2022-11-05T15:33:50.147Z,100760.97
2022-11-05T15:36:29.339Z,100757.31
2022-11-05T15:39:27.473Z,100766.00
2022-11-05T15:41:44.712Z,100756.13
2022-11-05T15:44:33.107Z,100755.94
2022-11-05T15:47:15.429Z,100760.22
2022-11-05T15:49:45.547Z,100760.06
2022-11-05T15:52:16.772Z,100752.00
2022-11-05T15:54:44.146Z,100762.47
2022-11-05T15:57:21.014Z,100760.59
2022-11-05T15:59:48.054Z,100767.56
2022-11-05T16:02:23.783Z,100770.97
2022-11-05T16:04:51.304Z,100770.94
2022-11-05T16:07:18.565Z,100773.53
2022-11-05T16:09:57.619Z,100774.38
2022-11-05T16:12:33.744Z,100770.00
2022-11-05T16:15:00.175Z,100775.31
2022-11-05T16:17:31.371Z,100773.56
2022-11-05T16:19:58.024Z,100775.44
2022-11-05T16:22:25.574Z,100781.69
2022-11-05T16:24:52.338Z,100775.66
2022-11-05T16:27:21.976Z,100771.31
2022-11-05T16:29:52.092Z,100768.72
2022-11-05T16:32:30.696Z,100781.13
2022-11-05T16:35:00.924Z,100775.00
2022-11-05T16:37:29.753Z,100782.09
2022-11-05T16:39:56.605Z,100775.06
2022-11-05T16:42:23.173Z,100775.13
2022-11-05T16:44:51.599Z,100772.50
2022-11-05T16:47:18.865Z,100772.53
2022-11-05T16:49:47.077Z,100764.69
2022-11-05T16:52:14.657Z,100763.78
2022-11-05T16:54:41.667Z,100755.00
2022-11-05T16:57:20.852Z,100757.66
2022-11-05T16:59:47.361Z,100767.38
2022-11-05T17:02:14.064Z,100767.38
2022-11-05T17:04:40.960Z,100767.41
2022-11-05T17:07:07.457Z,100772.69
2022-11-05T17:09:34.062Z,100775.31
2022-11-05T17:12:02.348Z,100775.31
2022-11-05T17:14:28.956Z,100769.13
2022-11-05T17:16:55.851Z,100779.66
2022-11-05T17:19:22.329Z,100786.69
2022-11-05T17:21:50.001Z,100787.59
2022-11-05T17:24:16.865Z,100777.91
2022-11-05T17:26:43.466Z,100784.03
2022-11-05T17:29:10.039Z,100784.00
2022-11-05T17:31:39.712Z,100782.16
2022-11-05T17:34:09.288Z,100791.88
2022-11-05T17:36:35.873Z,100797.97
2022-11-05T17:39:02.469Z,100789.13
2022-11-05T17:41:28.958Z,100791.72
2022-11-05T17:43:57.214Z,100793.47
2022-11-05T17:46:24.820Z,100786.41
2022-11-05T17:48:51.683Z,100796.09
2022-11-05T17:51:19.620Z,100794.31
2022-11-05T17:53:48.748Z,100796.06
2022-11-05T17:56:28.831Z,100799.53
2022-11-05T17:59:00.694Z,100805.72
2022-11-05T18:01:30.731Z,100798.66
2022-11-05T18:03:59.540Z,100801.28
2022-11-05T18:06:28.246Z,100808.28
2022-11-05T18:08:54.863Z,100810.91
2022-11-05T18:11:21.352Z,100804.72
2022-11-05T18:13:48.085Z,100809.91
2022-11-05T18:16:14.890Z,100815.16
2022-11-05T18:18:41.534Z,100813.34
2022-11-05T18:21:08.324Z,100822.13
2022-11-05T18:23:35.031Z,100816.84
2022-11-05T18:26:01.537Z,100814.19
2022-11-05T18:28:31.026Z,100822.13
2022-11-05T18:30:57.478Z,100819.47
2022-11-05T18:33:24.578Z,100826.53
2022-11-05T18:35:51.135Z,100818.53
2022-11-05T18:38:17.692Z,100813.22
2022-11-05T18:40:44.421Z,100814.09
2022-11-05T18:43:11.422Z,100810.53
2022-11-05T18:45:38.255Z,100813.06
2022-11-05T18:48:05.253Z,100809.53
2022-11-05T18:50:31.792Z,100803.25
2022-11-05T18:52:58.508Z,100804.94
2022-11-05T18:55:25.555Z,100811.91
2022-11-05T18:57:52.357Z,100801.28
2022-11-05T19:00:20.233Z,100789.78
2022-11-05T19:02:47.094Z,100795.03
2022-11-05T19:05:28.513Z,100789.72
2022-11-05T19:07:55.766Z,100791.44
2022-11-05T19:10:22.493Z,100788.75
2022-11-05T19:12:49.248Z,100790.47
2022-11-05T19:15:15.893Z,100792.22
2022-11-05T19:17:42.588Z,100788.63
2022-11-05T19:20:09.869Z,100793.88
2022-11-05T19:22:36.649Z,100787.72
2022-11-05T19:25:04.240Z,100785.03
2022-11-05T19:27:30.809Z,100790.34
2022-11-05T19:29:57.547Z,100797.34
2022-11-05T19:32:24.726Z,100800.00
2022-11-05T19:34:51.332Z,100799.13
2022-11-05T19:37:19.150Z,100797.31
2022-11-05T19:39:45.751Z,100796.50
2022-11-05T19:42:12.639Z,100790.31
2022-11-05T19:44:39.115Z,100794.72
2022-11-05T19:47:05.771Z,100792.97
2022-11-05T19:49:32.567Z,100791.22
2022-11-05T19:51:59.216Z,100788.56
2022-11-05T19:54:25.939Z,100785.03
2022-11-05T19:56:52.857Z,100795.59
2022-11-05T19:59:19.434Z,100786.78
2022-11-05T20:01:46.241Z,100791.13
2022-11-05T20:04:13.172Z,100790.25
2022-11-05T20:06:40.773Z,100798.13
2022-11-05T20:09:27.088Z,100796.34
2022-11-05T20:11:56.184Z,100792.78
2022-11-05T20:14:25.345Z,100797.97
2022-11-05T20:16:55.301Z,100797.91
2022-11-05T20:19:23.181Z,100799.63
2022-11-05T20:21:49.953Z,100798.69
2022-11-05T20:24:24.276Z,100798.66
2022-11-05T20:26:51.921Z,100791.59
2022-11-05T20:29:18.754Z,100796.84
2022-11-05T20:31:45.554Z,100782.78
2022-11-05T20:34:12.486Z,100788.91
2022-11-05T20:36:39.627Z,100801.22
2022-11-05T20:39:06.350Z,100803.00
2022-11-05T20:41:33.345Z,100795.09
2022-11-05T20:44:00.064Z,100795.97
2022-11-05T20:46:27.052Z,100796.84
2022-11-05T20:48:53.935Z,100795.97
2022-11-05T20:51:24.306Z,100793.28
2022-11-05T20:53:55.454Z,100799.41
2022-11-05T20:56:28.115Z,100799.28
2022-11-05T20:58:57.941Z,100800.91
2022-11-05T21:01:25.975Z,100797.28
2022-11-05T21:03:52.722Z,100793.69
2022-11-05T21:06:19.335Z,100794.47
2022-11-05T21:08:50.072Z,100796.19
2022-11-05T21:11:18.748Z,100796.16
2022-11-05T21:13:45.989Z,100790.84
2022-11-05T21:16:17.978Z,100802.28
2022-11-05T21:18:45.559Z,100807.56
2022-11-05T21:21:20.035Z,100807.56
2022-11-05T21:23:46.988Z,100810.22
2022-11-05T21:26:15.405Z,100796.16
2022-11-05T21:28:42.527Z,100803.19
2022-11-05T21:31:09.940Z,100801.41
2022-11-05T21:33:36.507Z,100807.59
2022-11-05T21:36:09.046Z,100807.63
2022-11-05T21:38:35.995Z,100806.72
2022-11-05T21:41:03.896Z,100801.47
2022-11-05T21:43:30.677Z,100804.19
2022-11-05T21:46:04.005Z,100806.84
2022-11-05T21:48:31.131Z,100804.25
2022-11-05T21:51:16.583Z,100803.38
2022-11-05T21:54:01.584Z,100809.56
2022-11-05T21:56:46.994Z,100812.25
2022-11-05T21:59:34.983Z,100806.06
2022-11-05T22:02:02.514Z,100800.78
2022-11-05T22:04:30.743Z,100806.06
2022-11-05T22:06:57.824Z,100793.75
2022-11-05T22:09:25.788Z,100794.69
2022-11-05T22:11:52.599Z,100797.31
2022-11-05T22:14:19.369Z,100797.38
2022-11-05T22:16:46.216Z,100789.50
2022-11-05T22:19:12.959Z,100784.22
2022-11-05T22:21:39.854Z,100789.56
2022-11-05T22:24:07.202Z,100784.28
2022-11-05T22:26:37.991Z,100785.13
2022-11-05T22:29:05.875Z,100786.06
2022-11-05T22:31:36.197Z,100780.78
2022-11-05T22:34:04.331Z,100784.31
2022-11-05T22:36:32.649Z,100780.81
2022-11-05T22:38:59.344Z,100786.13
2022-11-05T22:41:26.322Z,100777.34
2022-11-05T22:43:52.855Z,100773.00
2022-11-05T22:46:23.047Z,100772.13
2022-11-05T22:48:50.436Z,100773.97
2022-11-05T22:51:19.953Z,100768.72
2022-11-05T22:53:47.079Z,100766.13
2022-11-05T22:56:16.379Z,100774.03
2022-11-05T22:58:43.540Z,100765.19
2022-11-05T23:01:11.831Z,100771.34
2022-11-05T23:03:40.082Z,100774.75
2022-11-05T23:06:30.305Z,100767.59
2022-11-05T23:09:16.154Z,100759.63
2022-11-05T23:11:44.752Z,100765.72
2022-11-05T23:14:13.035Z,100767.44
2022-11-05T23:16:59.794Z,100756.03
2022-11-05T23:19:45.171Z,100762.97
2022-11-05T23:22:38.935Z,100769.97
2022-11-05T23:25:08.609Z,100756.63
2022-11-05T23:27:37.210Z,100750.31
2022-11-05T23:30:07.409Z,100751.03
2022-11-05T23:32:34.236Z,100746.47
2022-11-05T23:35:00.729Z,100744.66
2022-11-05T23:37:47.931Z,100742.75
2022-11-05T23:40:18.191Z,100736.53
2022-11-05T23:43:03.910Z,100724.31
2022-11-05T23:45:51.778Z,100716.53
2022-11-05T23:48:24.928Z,100711.31
2022-11-05T23:50:57.392Z,100712.19
2022-11-05T23:53:24.319Z,100711.31
2022-11-05T23:55:50.883Z,100709.50
2022-11-05T23:58:18.443Z,100710.34
